createdAt,value
2023-04-12T00:00:40.700Z,99817.91
2023-04-12T00:02:46.301Z,99817.03
2023-04-12T00:04:51.707Z,99814.56
2023-04-12T00:06:56.806Z,99811.73
2023-04-12T00:09:01.828Z,99811.91
2023-04-12T00:11:06.849Z,99809.7
2023-04-12T00:13:11.872Z,99807.22
2023-04-12T00:15:16.921Z,99802.06
2023-04-12T00:17:22.221Z,99803.47
2023-04-12T00:19:27.580Z,99805.36
2023-04-12T00:21:32.736Z,99802.91
2023-04-12T00:23:37.714Z,99800.06
2023-04-12T00:25:42.760Z,99798.63
2023-04-12T00:27:47.843Z,99798.97
2023-04-12T00:29:52.897Z,99796.58
2023-04-12T00:31:57.955Z,99791.56
2023-04-12T00:34:02.989Z,99792.88
2023-04-12T00:36:08.146Z,99793.06
2023-04-12T00:38:13.424Z,99792.3
2023-04-12T00:40:18.434Z,99796.59
2023-04-12T00:42:23.432Z,99796.5
2023-04-12T00:44:28.670Z,99797.73
2023-04-12T00:46:33.799Z,99794.91
2023-04-12T00:48:38.869Z,99791.83
2023-04-12T00:50:43.863Z,99793.06
2023-04-12T00:52:48.856Z,99792.45
2023-04-12T00:54:53.835Z,99790.36
2023-04-12T00:56:58.805Z,99793.66
2023-04-12T00:59:03.839Z,99795.58
2023-04-12T01:01:09.100Z,99794.29
2023-04-12T01:03:14.479Z,99791.29
2023-04-12T01:05:19.695Z,99789.42
2023-04-12T01:07:24.732Z,99789.44
2023-04-12T01:09:29.749Z,99793.48
2023-04-12T01:11:34.831Z,99793.56
2023-04-12T01:13:39.827Z,99793.9
2023-04-12T01:15:44.840Z,99793.05
2023-04-12T01:17:49.942Z,99791.7
2023-04-12T01:19:55.137Z,99792.98
2023-04-12T01:22:00.156Z,99789.31
2023-04-12T01:24:05.273Z,99786.19
2023-04-12T01:26:10.467Z,99791.03
2023-04-12T01:28:15.594Z,99796.16
2023-04-12T01:30:20.719Z,99791.44
2023-04-12T01:32:25.780Z,99792.42
2023-04-12T01:34:30.875Z,99795.37
2023-04-12T01:36:35.854Z,99795.53
2023-04-12T01:38:40.920Z,99790.84
2023-04-12T01:40:45.986Z,99793.28
2023-04-12T01:42:50.934Z,99793.8
2023-04-12T01:44:55.950Z,99794.11
2023-04-12T01:47:00.926Z,99791.54
2023-04-12T01:49:06.040Z,99793.27
2023-04-12T01:51:11.074Z,99792.5
2023-04-12T01:53:16.036Z,99786.63
2023-04-12T01:55:21.079Z,99781.94
2023-04-12T01:57:26.068Z,99781.56
2023-04-12T01:59:31.101Z,99781.2
2023-04-12T02:01:36.585Z,99773.43
2023-04-12T02:03:42.006Z,99774.09
2023-04-12T02:05:47.218Z,99774.73
2023-04-12T02:07:52.211Z,99774.98
2023-04-12T02:09:57.208Z,99774.14
2023-04-12T02:12:02.225Z,99775.1
2023-04-12T02:14:07.228Z,99774.72
2023-04-12T02:16:12.489Z,99774.91
2023-04-12T02:18:17.572Z,99769.52
2023-04-12T02:20:22.526Z,99764.25
2023-04-12T02:22:27.498Z,99766.08
2023-04-12T02:24:32.478Z,99766.77
2023-04-12T02:26:37.524Z,99763.52
2023-04-12T02:28:42.540Z,99764.5
2023-04-12T02:30:47.635Z,99755.5
2023-04-12T02:32:52.775Z,99754.66
2023-04-12T02:34:57.841Z,99754.59
2023-04-12T02:37:02.913Z,99755.03
2023-04-12T02:39:07.977Z,99746
2023-04-12T02:41:12.989Z,99742.28
2023-04-12T02:43:17.972Z,99746.13
2023-04-12T02:45:22.940Z,99744.7
2023-04-12T02:47:27.999Z,99743.41
2023-04-12T02:49:33.616Z,99736.02
2023-04-12T02:51:39.379Z,99736.12
2023-04-12T02:53:44.373Z,99731.55
2023-04-12T02:55:49.516Z,99728.33
2023-04-12T02:57:54.513Z,99727.86
2023-04-12T02:59:59.650Z,99729.7
2023-04-12T03:02:05.010Z,99728.66
2023-04-12T03:04:10.533Z,99725.23
2023-04-12T03:06:15.654Z,99724.67
2023-04-12T03:08:20.620Z,99726.76
2023-04-12T03:10:25.663Z,99726.59
2023-04-12T03:12:30.728Z,99720.77
2023-04-12T03:14:35.710Z,99725.17
2023-04-12T03:16:40.707Z,99730.75
2023-04-12T03:18:45.715Z,99734.09
2023-04-12T03:20:50.656Z,99735.09
2023-04-12T03:22:55.664Z,99729.92
2023-04-12T03:25:00.636Z,99729.41
2023-04-12T03:27:05.759Z,99730.69
2023-04-12T03:29:12.470Z,99728.55
2023-04-12T03:31:17.633Z,99728.39
2023-04-12T03:33:22.684Z,99729.36
2023-04-12T03:35:27.761Z,99733.88
2023-04-12T03:37:32.965Z,99736.5
2023-04-12T03:39:38.177Z,99735.11
2023-04-12T03:41:43.181Z,99736.09
2023-04-12T03:43:48.189Z,99734.79
2023-04-12T03:47:28.176Z,99736.7
2023-04-12T03:49:33.219Z,99740.16
2023-04-12T03:51:38.198Z,99738.2
2023-04-12T03:53:43.156Z,99736.2
2023-04-12T03:55:48.271Z,99737.44
2023-04-12T03:57:53.272Z,99737.37
2023-04-12T03:59:58.285Z,99739.06
2023-04-12T04:02:03.466Z,99738.49
2023-04-12T04:04:09.022Z,99741.13
2023-04-12T04:06:14.492Z,99743.88
2023-04-12T04:08:19.478Z,99740.53
2023-04-12T04:10:24.477Z,99738.47
2023-04-12T04:12:29.475Z,99737.38
2023-04-12T04:14:34.464Z,99734.13
2023-04-12T04:16:39.578Z,99732.75
2023-04-12T04:18:44.639Z,99729.57
2023-04-12T04:20:49.652Z,99725.52
2023-04-12T04:22:54.692Z,99723.44
2023-04-12T04:24:59.709Z,99722.71
2023-04-12T04:27:04.921Z,99723.7
2023-04-12T04:29:09.884Z,99724.28
2023-04-12T04:31:14.926Z,99722.53
2023-04-12T04:33:20.009Z,99733.97
2023-04-12T04:35:25.124Z,99731.48
2023-04-12T04:37:30.179Z,99736.8
2023-04-12T04:39:35.144Z,99738.25
2023-04-12T04:41:40.171Z,99736.89
2023-04-12T04:43:45.495Z,99734.31
2023-04-12T04:45:50.896Z,99732.83
2023-04-12T04:47:56.117Z,99736.64
2023-04-12T04:50:01.320Z,99737.69
2023-04-12T04:52:06.349Z,99736.17
2023-04-12T04:54:11.338Z,99734.09
2023-04-12T04:56:16.468Z,99734.13
2023-04-12T04:58:21.443Z,99726.22
2023-04-12T05:00:26.583Z,99727.17
2023-04-12T05:02:31.816Z,99727.03
2023-04-12T05:04:36.947Z,99728.91
2023-04-12T05:06:41.956Z,99727.14
2023-04-12T05:08:46.962Z,99721.23
2023-04-12T05:10:51.954Z,99712.61
2023-04-12T05:12:57.263Z,99717.08
2023-04-12T05:15:11.415Z,99708.08
2023-04-12T05:17:17.012Z,99707.77
2023-04-12T05:19:21.981Z,99701.8
2023-04-12T05:21:27.156Z,99694.52
2023-04-12T05:23:32.120Z,99692.52
2023-04-12T05:25:37.176Z,99687.25
2023-04-12T05:27:42.374Z,99691.39
2023-04-12T05:29:47.348Z,99690.69
2023-04-12T05:31:52.345Z,99693.97
2023-04-12T05:33:57.296Z,99690.83
2023-04-12T05:36:02.418Z,99689.4
2023-04-12T05:38:07.736Z,99690.34
2023-04-12T05:40:12.796Z,99688.97
2023-04-12T05:42:17.931Z,99691.59
2023-04-12T05:44:22.929Z,99691.02
2023-04-12T05:46:28.020Z,99689.77
2023-04-12T05:48:33.165Z,99689.72
2023-04-12T05:50:38.175Z,99687.44
2023-04-12T05:52:43.167Z,99689.25
2023-04-12T05:54:48.161Z,99689.39
2023-04-12T05:56:53.151Z,99695.09
2023-04-12T05:58:58.609Z,99696.47
2023-04-12T06:01:03.712Z,99698.74
2023-04-12T06:03:08.855Z,99697.11
2023-04-12T06:05:14.347Z,99695.7
2023-04-12T06:07:19.508Z,99691.91
2023-04-12T06:09:24.594Z,99689.08
2023-04-12T06:11:29.551Z,99693.13
2023-04-12T06:13:34.548Z,99689.35
2023-04-12T06:15:39.680Z,99691.64
2023-04-12T06:17:44.847Z,99690.06
2023-04-12T06:19:49.981Z,99689.53
2023-04-12T06:21:54.992Z,99693.28
2023-04-12T06:23:59.988Z,99695.34
2023-04-12T06:26:05.057Z,99689.63
2023-04-12T06:28:10.160Z,99689.01
2023-04-12T06:30:15.162Z,99692.03
2023-04-12T06:32:20.170Z,99689.12
2023-04-12T06:34:25.176Z,99686.12
2023-04-12T06:36:30.130Z,99687.87
2023-04-12T06:38:35.142Z,99684.94
2023-04-12T06:40:41.051Z,99687.28
2023-04-12T06:42:46.041Z,99685.22
2023-04-12T06:44:51.054Z,99684.58
2023-04-12T06:46:56.069Z,99683.33
2023-04-12T06:49:01.609Z,99681.3
2023-04-12T06:51:06.621Z,99679.64
2023-04-12T06:53:11.577Z,99679.45
2023-04-12T06:55:16.593Z,99678.22
2023-04-12T06:57:21.566Z,99675.36
2023-04-12T06:59:26.724Z,99676.28
2023-04-12T07:01:31.831Z,99677.7
2023-04-12T07:03:37.145Z,99672.85
2023-04-12T07:05:42.436Z,99674.52
2023-04-12T07:07:47.578Z,99675.53
2023-04-12T07:09:52.617Z,99675.19
2023-04-12T07:11:57.625Z,99668.07
2023-04-12T07:14:02.678Z,99664.81
2023-04-12T07:16:07.932Z,99662.98
2023-04-12T07:18:12.978Z,99661.17
2023-04-12T07:20:17.975Z,99656.46
2023-04-12T07:22:22.945Z,99657.51
2023-04-12T07:24:27.956Z,99652.44
2023-04-12T07:26:32.957Z,99654.13
2023-04-12T07:28:37.981Z,99647.66
2023-04-12T07:30:43.144Z,99646.13
2023-04-12T07:32:48.289Z,99644.95
2023-04-12T07:34:53.379Z,99643.34
2023-04-12T07:36:58.445Z,99642.4
2023-04-12T07:39:03.483Z,99638.29
2023-04-12T07:41:08.611Z,99640.83
2023-04-12T07:43:13.613Z,99638
2023-04-12T07:45:18.696Z,99637.48
2023-04-12T07:47:23.827Z,99634.42
2023-04-12T07:49:28.990Z,99631.88
2023-04-12T07:51:33.963Z,99629.66
2023-04-12T07:53:38.950Z,99629.02
2023-04-12T07:55:44.102Z,99627.36
2023-04-12T07:57:49.108Z,99625.08
2023-04-12T07:59:54.111Z,99622.63
2023-04-12T08:01:59.336Z,99621.7
2023-04-12T08:04:05.331Z,99621.14
2023-04-12T08:06:10.823Z,99626.7
2023-04-12T08:08:16.084Z,99624.5
2023-04-12T08:10:21.156Z,99626.16
2023-04-12T08:12:26.235Z,99624.7
2023-04-12T08:14:31.265Z,99624.67
2023-04-12T08:16:36.363Z,99621.95
2023-04-12T08:18:41.412Z,99619.03
2023-04-12T08:20:46.479Z,99618.77
2023-04-12T08:22:51.522Z,99618.17
2023-04-12T08:24:56.544Z,99616.61
2023-04-12T08:27:01.603Z,99613.18
2023-04-12T08:29:06.662Z,99614.39
2023-04-12T08:31:11.719Z,99607.42
2023-04-12T08:33:16.836Z,99607.68
2023-04-12T08:35:21.866Z,99614.56
2023-04-12T08:37:27.062Z,99603.88
2023-04-12T08:39:32.190Z,99599.85
2023-04-12T08:41:39.257Z,99596.45
2023-04-12T08:43:44.327Z,99597.39
2023-04-12T08:45:49.485Z,99591.98
2023-04-12T08:47:54.691Z,99592.38
2023-04-12T08:49:59.811Z,99594.74
2023-04-12T08:52:04.800Z,99593.02
2023-04-12T08:54:09.822Z,99594.44
2023-04-12T08:56:15.163Z,99593.03
2023-04-12T08:58:20.202Z,99589.1
2023-04-12T09:00:25.235Z,99589.23
2023-04-12T09:02:30.625Z,99588.42
2023-04-12T09:04:36.086Z,99588.94
2023-04-12T09:06:41.271Z,99590.26
2023-04-12T09:08:46.339Z,99587.27
2023-04-12T09:10:51.402Z,99587.24
2023-04-12T09:12:56.424Z,99581.08
2023-04-12T09:15:01.470Z,99583.44
2023-04-12T09:17:06.759Z,99576.93
2023-04-12T09:19:12.063Z,99577.82
2023-04-12T09:21:17.240Z,99576.13
2023-04-12T09:23:22.389Z,99571.55
2023-04-12T09:25:27.558Z,99571.76
2023-04-12T09:27:32.702Z,99567.81
2023-04-12T09:29:37.727Z,99567.63
2023-04-12T09:31:42.921Z,99568.08
2023-04-12T09:33:48.099Z,99566.39
2023-04-12T09:35:53.273Z,99567.36
2023-04-12T09:37:58.411Z,99560.38
2023-04-12T09:40:03.599Z,99557.7
2023-04-12T09:42:32.915Z,99548.62
2023-04-12T09:44:39.260Z,99547.7
2023-04-12T09:46:45.835Z,99542.81
2023-04-12T09:48:52.346Z,99540.91
2023-04-12T09:50:57.495Z,99543.48
2023-04-12T09:53:02.683Z,99537
2023-04-12T09:55:07.925Z,99530.64
2023-04-12T09:57:12.962Z,99530.19
2023-04-12T09:59:18.002Z,99525.89
2023-04-12T10:01:23.240Z,99527
2023-04-12T10:03:28.729Z,99518.86
2023-04-12T10:05:34.113Z,99518.34
2023-04-12T10:07:39.721Z,99513.56
2023-04-12T10:09:44.755Z,99512.43
2023-04-12T10:11:49.839Z,99510.56
2023-04-12T10:13:55.001Z,99504.84
2023-04-12T10:16:00.836Z,99503.89
2023-04-12T10:18:06.017Z,99502.69
2023-04-12T10:20:11.240Z,99500.09
2023-04-12T10:22:16.228Z,99497.3
2023-04-12T10:24:21.408Z,99496.55
2023-04-12T10:26:26.517Z,99495.58
2023-04-12T10:28:31.694Z,99491.06
2023-04-12T10:30:36.938Z,99486.56
2023-04-12T10:32:42.159Z,99483.94
2023-04-12T10:34:47.278Z,99479.19
2023-04-12T10:36:52.344Z,99480.59
2023-04-12T10:38:58.061Z,99482.53
2023-04-12T10:41:03.597Z,99477.27
2023-04-12T10:43:08.642Z,99476.59
2023-04-12T10:45:13.897Z,99476.7
2023-04-12T10:47:19.500Z,99464.11
2023-04-12T10:49:24.769Z,99460.53
2023-04-12T10:51:30.056Z,99463.26
2023-04-12T10:53:35.111Z,99461.59
2023-04-12T10:55:40.237Z,99455.06
2023-04-12T10:57:45.299Z,99453.74
2023-04-12T10:59:50.310Z,99448.56
2023-04-12T11:01:55.620Z,99444.05
2023-04-12T11:04:01.477Z,99438.28
2023-04-12T11:06:27.392Z,99434.78
2023-04-12T11:08:32.646Z,99426.75
2023-04-12T11:10:37.747Z,99425.47
2023-04-12T11:12:42.953Z,99420.44
2023-04-12T11:14:48.340Z,99424.36
2023-04-12T11:16:53.627Z,99421.26
2023-04-12T11:18:59.268Z,99413.72
2023-04-12T11:21:04.763Z,99413.2
2023-04-12T11:23:12.678Z,99422.59
2023-04-12T11:25:17.795Z,99425.55
2023-04-12T11:27:22.946Z,99418.11
2023-04-12T11:29:27.943Z,99413.03
2023-04-12T11:31:33.103Z,99406.2
2023-04-12T11:33:38.633Z,99402.64
2023-04-12T11:35:43.680Z,99402.41
2023-04-12T11:37:48.797Z,99393.16
2023-04-12T11:39:53.814Z,99390
2023-04-12T11:41:58.858Z,99387.92
2023-04-12T11:44:03.954Z,99389.38
2023-04-12T11:46:09.218Z,99393.3
2023-04-12T11:48:14.498Z,99394.76
2023-04-12T11:50:19.640Z,99390.61
2023-04-12T11:52:24.649Z,99379.38
2023-04-12T11:54:29.712Z,99377.83
2023-04-12T11:56:34.899Z,99370.97
2023-04-12T11:58:39.971Z,99363.69
2023-04-12T12:00:45.005Z,99362.74
2023-04-12T12:03:08.658Z,99355.73
2023-04-12T12:05:14.881Z,99348.03
2023-04-12T12:07:21.640Z,99350.77
2023-04-12T12:09:27.253Z,99343.63
2023-04-12T12:11:32.278Z,99339.84
2023-04-12T12:13:37.298Z,99335.95
2023-04-12T12:15:43.185Z,99335.72
2023-04-12T12:17:48.436Z,99338.44
2023-04-12T12:19:53.481Z,99334.99
2023-04-12T12:21:58.515Z,99329.66
2023-04-12T12:24:03.572Z,99331.41
2023-04-12T12:26:20.347Z,99325.61
2023-04-12T12:28:25.378Z,99319.23
2023-04-12T12:30:30.370Z,99315.86
2023-04-12T12:32:35.643Z,99316.3
2023-04-12T12:34:41.193Z,99322.47
2023-04-12T12:36:46.500Z,99309.73
2023-04-12T12:38:51.588Z,99309.92
2023-04-12T12:40:56.598Z,99304.23
2023-04-12T12:43:01.726Z,99305.38
2023-04-12T12:45:06.711Z,99300.78
2023-04-12T12:47:16.128Z,99301.2
2023-04-12T12:49:21.527Z,99301.26
2023-04-12T12:51:26.640Z,99301.87
2023-04-12T12:53:31.806Z,99297.28
2023-04-12T12:55:36.799Z,99287.84
2023-04-12T12:57:41.884Z,99280.78
2023-04-12T12:59:46.919Z,99281.13
2023-04-12T13:01:52.346Z,99278.66
2023-04-12T13:03:57.835Z,99280.73
2023-04-12T13:06:03.324Z,99277.94
2023-04-12T13:08:08.476Z,99276.19
2023-04-12T13:10:13.578Z,99270.02
2023-04-12T13:12:18.582Z,99269.11
2023-04-12T13:14:23.628Z,99266.66
2023-04-12T13:16:28.790Z,99260.53
2023-04-12T13:18:33.864Z,99256.02
2023-04-12T13:20:38.876Z,99255.7
2023-04-12T13:22:43.918Z,99249.51
2023-04-12T13:24:48.962Z,99241.31
2023-04-12T13:26:54.116Z,99240.3
2023-04-12T13:28:59.926Z,99235.55
2023-04-12T13:31:05.425Z,99226.66
2023-04-12T13:33:10.723Z,99228.49
2023-04-12T13:35:22.224Z,99220.78
2023-04-12T13:37:27.272Z,99218.23
2023-04-12T13:39:34.456Z,99220.03
2023-04-12T13:41:39.561Z,99218.16
2023-04-12T13:43:44.580Z,99215.42
2023-04-12T13:45:49.676Z,99203.82
2023-04-12T13:47:55.009Z,99205.8
2023-04-12T13:50:00.248Z,99207.45
2023-04-12T13:52:05.349Z,99199.8
2023-04-12T13:54:10.395Z,99201.11
2023-04-12T13:56:15.394Z,99195.53
2023-04-12T13:58:20.443Z,99193.58
2023-04-12T14:00:25.424Z,99186.4
2023-04-12T14:02:32.811Z,99193.42
2023-04-12T14:04:38.130Z,99192.97
2023-04-12T14:06:43.424Z,99182.41
2023-04-12T14:08:49.568Z,99187.67
2023-04-12T14:10:54.568Z,99176.11
2023-04-12T14:12:59.749Z,99175.91
2023-04-12T14:15:04.822Z,99171.77
2023-04-12T14:17:09.920Z,99165.83
2023-04-12T14:19:15.064Z,99167.27
2023-04-12T14:21:20.078Z,99162.27
2023-04-12T14:23:25.335Z,99156.4
2023-04-12T14:25:30.360Z,99159.27
2023-04-12T14:27:35.419Z,99165.57
2023-04-12T14:29:40.581Z,99158.52
2023-04-12T14:31:45.602Z,99159.33
2023-04-12T14:33:50.625Z,99148.84
2023-04-12T14:35:55.747Z,99138.28
2023-04-12T14:38:00.914Z,99144.02
2023-04-12T14:40:06.008Z,99155.23
2023-04-12T14:42:11.137Z,99132.23
2023-04-12T14:44:18.140Z,99134.56
2023-04-12T14:46:28.739Z,99142.36
2023-04-12T14:48:34.113Z,99138.79
2023-04-12T14:50:39.268Z,99135.21
2023-04-12T14:52:44.424Z,99136.45
2023-04-12T14:54:49.440Z,99136.13
2023-04-12T14:56:57.258Z,99136.2
2023-04-12T14:59:02.327Z,99133.8
2023-04-12T15:01:07.402Z,99139.17
2023-04-12T15:03:12.983Z,99128.51
2023-04-12T15:05:18.708Z,99135.54
2023-04-12T15:07:23.974Z,99133.66
2023-04-12T15:09:29.158Z,99132.88
2023-04-12T15:11:34.190Z,99125.98
2023-04-12T15:13:39.199Z,99133.94
2023-04-12T15:15:44.333Z,99122.73
2023-04-12T15:17:49.445Z,99113.33
2023-04-12T15:19:54.539Z,99112.52
2023-04-12T15:21:59.535Z,99110.63
2023-04-12T15:24:04.628Z,99108.91
2023-04-12T15:26:09.635Z,99112.89
2023-04-12T15:28:14.617Z,99101.52
2023-04-12T15:30:19.605Z,99104.98
2023-04-12T15:32:24.965Z,99094.97
2023-04-12T15:34:30.296Z,99093.88
2023-04-12T15:36:35.429Z,99095.34
2023-04-12T15:38:40.572Z,99086.22
2023-04-12T15:40:45.718Z,99088.8
2023-04-12T15:42:50.809Z,99082.24
2023-04-12T15:44:55.871Z,99082.08
2023-04-12T15:47:12.353Z,99070.98
2023-04-12T15:49:17.392Z,99069.27
2023-04-12T15:51:22.536Z,99071.27
2023-04-12T15:53:27.635Z,99071.49
2023-04-12T15:55:32.726Z,99078.84
2023-04-12T15:57:37.774Z,99071.8
2023-04-12T15:59:42.907Z,99073.07
2023-04-12T16:01:48.042Z,99080.77
2023-04-12T16:03:53.849Z,99077.64
2023-04-12T16:05:59.565Z,99085.46
2023-04-12T16:08:04.631Z,99078.39
2023-04-12T16:10:09.650Z,99082.2
2023-04-12T16:12:14.652Z,99086.88
2023-04-12T16:14:19.693Z,99080.5
2023-04-12T16:16:24.886Z,99075.95
2023-04-12T16:18:30.051Z,99079.3
2023-04-12T16:20:35.166Z,99072.27
2023-04-12T16:22:40.172Z,99082.09
2023-04-12T16:24:45.195Z,99085.88
2023-04-12T16:26:50.213Z,99092.89
2023-04-12T16:28:55.630Z,99079.69
2023-04-12T16:31:01.357Z,99078.03
2023-04-12T16:33:06.579Z,99078.93
2023-04-12T16:35:11.796Z,99071.02
2023-04-12T16:37:16.883Z,99066.95
2023-04-12T16:39:21.868Z,99066.16
2023-04-12T16:41:26.985Z,99076.47
2023-04-12T16:43:32.053Z,99076.13
2023-04-12T16:45:37.167Z,99073.39
2023-04-12T16:47:42.361Z,99061.52
2023-04-12T16:49:47.579Z,99057.56
2023-04-12T16:51:52.609Z,99054.05
2023-04-12T16:53:58.545Z,99053.25
2023-04-12T16:56:03.845Z,99053.97
2023-04-12T16:58:08.914Z,99052.91
2023-04-12T17:00:13.939Z,99052.3
2023-04-12T17:02:19.193Z,99041.7
2023-04-12T17:04:24.615Z,99049.95
2023-04-12T17:06:29.690Z,99046.46
2023-04-12T17:08:34.747Z,99049.81
2023-04-12T17:10:39.778Z,99049.97
2023-04-12T17:12:44.850Z,99047.95
2023-04-12T17:14:49.874Z,99048.02
2023-04-12T17:16:54.874Z,99050.58
2023-04-12T17:19:00.405Z,99046.8
2023-04-12T17:21:06.373Z,99044.81
2023-04-12T17:23:11.891Z,99044.22
2023-04-12T17:25:21.295Z,99048.55
2023-04-12T17:27:31.389Z,99040.07
2023-04-12T17:29:36.355Z,99049.64
2023-04-12T17:31:41.343Z,99047.7
2023-04-12T17:33:46.316Z,99050.14
2023-04-12T17:35:51.304Z,99048.94
2023-04-12T17:37:56.351Z,99052.14
2023-04-12T17:40:01.472Z,99047.63
2023-04-12T17:42:06.507Z,99047.13
2023-04-12T17:44:11.482Z,99046.77
2023-04-12T17:46:16.696Z,99055.14
2023-04-12T17:48:21.864Z,99051.23
2023-04-12T17:50:26.892Z,99048.2
2023-04-12T17:52:31.908Z,99047.69
2023-04-12T17:54:37.025Z,99048.31
2023-04-12T17:56:42.021Z,99043.99
2023-04-12T17:58:47.047Z,99043.48
2023-04-12T18:00:52.148Z,99033.06
2023-04-12T18:02:57.515Z,99034.17
2023-04-12T18:05:02.866Z,99034.98
2023-04-12T18:07:07.896Z,99046.03
2023-04-12T18:09:12.888Z,99045.59
2023-04-12T18:11:17.918Z,99045.54
2023-04-12T18:13:22.993Z,99049.49
2023-04-12T18:15:28.096Z,99051.55
2023-04-12T18:17:33.275Z,99055.16
2023-04-12T18:19:38.349Z,99060.8
2023-04-12T18:21:43.484Z,99061.86
2023-04-12T18:23:48.493Z,99062.09
2023-04-12T18:25:53.514Z,99061.28
2023-04-12T18:27:58.542Z,99065.23
2023-04-12T18:30:03.661Z,99070.97
2023-04-12T18:32:08.766Z,99080.48
2023-04-12T18:34:13.796Z,99075.42
2023-04-12T18:36:18.840Z,99073.3
2023-04-12T18:38:23.982Z,99079.18
2023-04-12T18:40:28.990Z,99071.08
2023-04-12T18:42:34.139Z,99072.63
2023-04-12T18:44:39.164Z,99072.45
2023-04-12T18:46:44.289Z,99072.28
2023-04-12T18:48:49.525Z,99068.61
2023-04-12T18:50:54.499Z,99071.75
2023-04-12T18:52:59.527Z,99068.53
2023-04-12T18:55:04.685Z,99073.95
2023-04-12T18:57:09.797Z,99055.65
2023-04-12T18:59:14.975Z,99058.02
2023-04-12T19:01:20.357Z,99063.48
2023-04-12T19:03:29.503Z,99061.8
2023-04-12T19:05:34.601Z,99070.02
2023-04-12T19:07:39.734Z,99066.44
2023-04-12T19:09:44.753Z,99067.92
2023-04-12T19:11:49.794Z,99058.91
2023-04-12T19:13:54.807Z,99057.7
2023-04-12T19:16:00.193Z,99056.53
2023-04-12T19:18:05.570Z,99055.59
2023-04-12T19:20:10.615Z,99058.41
2023-04-12T19:22:15.654Z,99058.38
2023-04-12T19:24:20.792Z,99060.8
2023-04-12T19:26:25.803Z,99055.27
2023-04-12T19:28:30.842Z,99051.24
2023-04-12T19:30:35.966Z,99048.95
2023-04-12T19:32:41.030Z,99044.86
2023-04-12T19:34:46.129Z,99042.04
2023-04-12T19:36:51.383Z,99052.38
2023-04-12T19:38:56.692Z,99047.09
2023-04-12T19:41:02.254Z,99055.09
2023-04-12T19:43:07.286Z,99042.34
2023-04-12T19:45:12.412Z,99042.65
2023-04-12T19:47:17.443Z,99040.69
2023-04-12T19:49:22.444Z,99040.52
2023-04-12T19:51:27.521Z,99035.09
2023-04-12T19:53:32.541Z,99036.02
2023-04-12T19:55:37.550Z,99032.48
2023-04-12T19:57:42.517Z,99028.25
2023-04-12T19:59:47.562Z,99029.38
2023-04-12T20:01:52.616Z,99027.64
2023-04-12T20:03:57.744Z,99032.63
2023-04-12T20:06:02.912Z,99027.94
2023-04-12T20:08:08.116Z,99030.81
2023-04-12T20:10:13.165Z,99023.33
2023-04-12T20:12:18.270Z,99017.85
2023-04-12T20:14:26.786Z,99012.55
2023-04-12T20:16:32.005Z,99025.99
2023-04-12T20:18:38.102Z,99020.13
2023-04-12T20:20:43.141Z,99019.84
2023-04-12T20:22:48.128Z,99022.36
2023-04-12T20:24:53.171Z,99014.44
2023-04-12T20:26:58.144Z,99008.7
2023-04-12T20:29:03.232Z,99012.16
2023-04-12T20:31:08.398Z,98999.52
2023-04-12T20:33:13.849Z,99004.66
2023-04-12T20:35:18.934Z,99004.92
2023-04-12T20:37:24.065Z,99012.26
2023-04-12T20:39:29.092Z,99003.33
2023-04-12T20:41:34.114Z,99000.69
2023-04-12T20:43:39.181Z,98996.36
2023-04-12T20:45:44.226Z,98990.83
2023-04-12T20:47:49.329Z,98992.06
2023-04-12T20:49:54.451Z,98990.52
2023-04-12T20:51:59.499Z,98988.95
2023-04-12T20:54:04.601Z,98984.09
2023-04-12T20:56:09.632Z,98987.19
2023-04-12T20:58:14.610Z,98984.92
2023-04-12T21:00:19.730Z,98977.24
2023-04-12T21:02:25.347Z,98975.2
2023-04-12T21:04:31.256Z,98971.67
2023-04-12T21:06:36.685Z,98974.02
2023-04-12T21:08:41.712Z,98971.04
2023-04-12T21:10:46.714Z,98965.05
2023-04-12T21:12:51.797Z,98962.7
2023-04-12T21:14:56.853Z,98961.41
2023-04-12T21:17:01.910Z,98959.91
2023-04-12T21:19:06.914Z,98961.3
2023-04-12T21:21:11.963Z,98963.77
2023-04-12T21:23:16.924Z,98957.27
2023-04-12T21:25:21.928Z,98956.25
2023-04-12T21:27:26.963Z,98952.46
2023-04-12T21:29:34.255Z,98952.31
2023-04-12T21:31:39.427Z,98946.96
2023-04-12T21:33:44.499Z,98937.78
2023-04-12T21:35:49.527Z,98937.88
2023-04-12T21:37:54.566Z,98934.09
2023-04-12T21:39:59.590Z,98932.22
2023-04-12T21:42:04.841Z,98925.75
2023-04-12T21:44:09.912Z,98928.34
2023-04-12T21:46:15.001Z,98931.48
2023-04-12T21:48:20.392Z,98936.98
2023-04-12T21:50:25.509Z,98932.88
2023-04-12T21:52:30.582Z,98938.39
2023-04-12T21:54:35.609Z,98932.08
2023-04-12T21:56:40.689Z,98931.64
2023-04-12T21:58:45.784Z,98935.61
2023-04-12T22:00:50.807Z,98941.95
2023-04-12T22:02:56.185Z,98944.45
2023-04-12T22:05:01.456Z,98947.44
2023-04-12T22:07:06.498Z,98938.11
2023-04-12T22:09:11.543Z,98934.97
2023-04-12T22:11:16.533Z,98940.71
2023-04-12T22:13:21.583Z,98940.27
2023-04-12T22:15:26.580Z,98940.23
2023-04-12T22:17:31.748Z,98939.42
2023-04-12T22:19:36.797Z,98951.83
2023-04-12T22:21:42.195Z,98950.27
2023-04-12T22:23:47.180Z,98946.49
2023-04-12T22:25:52.159Z,98941.72
2023-04-12T22:27:57.178Z,98941.59
2023-04-12T22:30:02.176Z,98944.08
2023-04-12T22:32:07.220Z,98936.94
2023-04-12T22:34:12.295Z,98939.43
2023-04-12T22:36:17.272Z,98940.31
2023-04-12T22:38:22.275Z,98938.88
2023-04-12T22:40:27.267Z,98938.1
2023-04-12T22:42:32.253Z,98931.8
2023-04-12T22:44:37.298Z,98941.81
2023-04-12T22:46:42.450Z,98944.57
2023-04-12T22:48:47.845Z,98936.78
2023-04-12T22:50:52.854Z,98938.66
2023-04-12T22:52:57.871Z,98935.81
2023-04-12T22:55:02.917Z,98947.3
2023-04-12T22:57:08.012Z,98937.7
2023-04-12T22:59:13.029Z,98937.7
2023-04-12T23:01:18.089Z,98930.34
2023-04-12T23:03:23.239Z,98940.45
2023-04-12T23:05:28.334Z,98934.23
2023-04-12T23:07:33.628Z,98932.39
2023-04-12T23:09:38.765Z,98926.58
2023-04-12T23:11:43.785Z,98929.66
2023-04-12T23:13:48.828Z,98925.36
2023-04-12T23:15:53.944Z,98927.07
2023-04-12T23:17:59.118Z,98920.29
2023-04-12T23:20:04.216Z,98919.16
2023-04-12T23:22:09.254Z,98907.47
2023-04-12T23:24:14.252Z,98908.08
2023-04-12T23:26:19.439Z,98907.26
2023-04-12T23:28:24.503Z,98907.38
2023-04-12T23:30:29.598Z,98900.43
2023-04-12T23:32:34.757Z,98896.12
2023-04-12T23:34:39.918Z,98892.89
2023-04-12T23:36:44.903Z,98885.31
2023-04-12T23:38:49.917Z,98888.63
2023-04-12T23:40:55.649Z,98886.35
2023-04-12T23:43:00.952Z,98887.61
2023-04-12T23:45:06.200Z,98887.61
2023-04-12T23:47:11.356Z,98886.45
2023-04-12T23:49:16.341Z,98874
2023-04-12T23:51:21.334Z,98875.03
2023-04-12T23:53:26.347Z,98870.13
2023-04-12T23:55:31.405Z,98868.01
2023-04-12T23:57:36.362Z,98865.28
2023-04-12T23:59:41.358Z,98867.7
